Terminal Aerodrome Forecast
Issued by NWS St Louis, MO

Home | Current Version | Previous Version | Text Only | Print | Product List | Glossary On
Versions: 1 2 3 4 5 6 7 8 9 10 11 12 13 14 15 16 17 18 19 20 21 22 23 24 25
000
FTUS43 KLSX 171100
TAFSTL
TAF
KSTL 171137Z 1712/1818 19007KT P6SM BKN250
     FM171400 23009KT P6SM BKN150
     FM172200 27005KT P6SM BKN120
     FM180300 35004KT P6SM OVC050=

USA.gov is the U.S. government's official web portal to all federal, state and local government web resources and services.